createdAt,value
2017-11-07T00:01:12.415Z,6.90
2017-11-07T00:03:38.371Z,6.90
2017-11-07T00:06:05.110Z,7.00
2017-11-07T00:08:31.059Z,6.90
2017-11-07T00:10:57.775Z,7.00
2017-11-07T00:13:23.769Z,7.00
2017-11-07T00:15:49.718Z,6.90
2017-11-07T00:18:15.757Z,6.90
2017-11-07T00:20:41.710Z,7.00
2017-11-07T00:23:07.667Z,7.10
2017-11-07T00:25:33.681Z,7.10
2017-11-07T00:27:59.629Z,6.90
2017-11-07T00:30:25.583Z,7.00
2017-11-07T00:32:51.557Z,6.90
2017-11-07T00:35:17.570Z,6.80
2017-11-07T00:37:44.282Z,6.90
2017-11-07T00:40:10.237Z,6.90
2017-11-07T00:42:36.216Z,6.90
2017-11-07T00:45:02.206Z,6.90
2017-11-07T00:47:28.194Z,6.90
2017-11-07T00:49:54.144Z,6.90
2017-11-07T00:52:20.127Z,6.90
2017-11-07T00:54:46.889Z,7.00
2017-11-07T00:57:13.615Z,7.10
2017-11-07T00:59:39.583Z,7.10
2017-11-07T01:02:05.581Z,7.10
2017-11-07T01:04:31.542Z,7.00
2017-11-07T01:06:58.234Z,7.10
2017-11-07T01:09:24.217Z,7.00
2017-11-07T01:11:50.186Z,7.00
2017-11-07T01:14:16.162Z,7.10
2017-11-07T01:16:42.154Z,7.00
2017-11-07T01:19:08.161Z,7.00
2017-11-07T01:21:34.127Z,7.00
2017-11-07T01:24:00.082Z,7.00
2017-11-07T01:26:26.074Z,7.00
2017-11-07T01:28:52.032Z,7.10
2017-11-07T01:31:18.717Z,7.00
2017-11-07T01:33:44.698Z,7.00
2017-11-07T01:36:10.680Z,7.10
2017-11-07T01:38:36.687Z,7.10
2017-11-07T01:41:03.379Z,7.20
2017-11-07T01:43:29.322Z,7.20
2017-11-07T01:45:55.318Z,7.10
2017-11-07T01:48:21.266Z,7.10
2017-11-07T01:50:47.222Z,7.10
2017-11-07T01:53:13.209Z,7.10
2017-11-07T01:55:39.967Z,7.10
2017-11-07T01:58:06.722Z,7.00
2017-11-07T02:00:33.421Z,7.10
2017-11-07T02:02:59.381Z,7.10
2017-11-07T02:05:25.362Z,7.00
2017-11-07T02:07:51.349Z,7.00
2017-11-07T02:10:17.330Z,7.00
2017-11-07T02:12:43.345Z,7.00
2017-11-07T02:15:09.324Z,6.90
2017-11-07T02:17:35.310Z,7.00
2017-11-07T02:20:01.258Z,6.90
2017-11-07T02:22:27.998Z,6.80
2017-11-07T02:24:54.694Z,6.90
2017-11-07T02:27:20.637Z,6.90
2017-11-07T02:29:46.618Z,6.90
2017-11-07T02:32:12.611Z,6.90
2017-11-07T02:34:38.600Z,6.90
2017-11-07T02:37:04.562Z,6.90
2017-11-07T02:39:30.545Z,6.90
2017-11-07T02:41:56.485Z,6.90
2017-11-07T02:44:22.466Z,6.90
2017-11-07T02:46:48.414Z,7.00
2017-11-07T02:49:14.398Z,7.00
2017-11-07T02:51:40.397Z,7.00
2017-11-07T02:54:06.358Z,7.00
2017-11-07T02:56:32.362Z,7.10
2017-11-07T02:58:58.314Z,7.10
2017-11-07T03:01:24.314Z,7.10
2017-11-07T03:03:50.266Z,7.10
2017-11-07T03:06:16.216Z,7.20
2017-11-07T03:08:42.215Z,7.20
2017-11-07T03:11:08.956Z,7.30
2017-11-07T03:13:35.644Z,7.40
2017-11-07T03:16:01.604Z,7.40
2017-11-07T03:18:27.587Z,7.40
2017-11-07T03:20:54.306Z,7.40
2017-11-07T03:23:20.260Z,7.40
2017-11-07T03:25:46.234Z,7.30
2017-11-07T03:28:12.238Z,7.30
2017-11-07T03:30:38.981Z,7.30
2017-11-07T03:33:04.965Z,7.30
2017-11-07T03:35:30.917Z,7.30
2017-11-07T03:37:56.896Z,7.30
2017-11-07T03:40:23.605Z,7.40
2017-11-07T03:42:49.584Z,7.40
2017-11-07T03:45:15.566Z,7.40
2017-11-07T03:47:41.574Z,7.40
2017-11-07T03:50:07.559Z,7.50
2017-11-07T03:52:33.582Z,7.50
2017-11-07T03:54:59.540Z,7.50
2017-11-07T03:57:25.532Z,7.50
2017-11-07T03:59:51.494Z,7.50
2017-11-07T04:02:17.491Z,7.50
2017-11-07T04:04:43.464Z,7.60
2017-11-07T04:07:09.474Z,7.70
2017-11-07T04:09:35.434Z,7.60
2017-11-07T04:12:01.402Z,7.60
2017-11-07T04:14:27.387Z,7.50
2017-11-07T04:16:53.334Z,7.70
2017-11-07T04:19:19.277Z,8.00
2017-11-07T04:21:45.265Z,7.80
2017-11-07T04:24:12.018Z,7.80
2017-11-07T04:26:38.783Z,7.90
2017-11-07T04:29:04.734Z,7.90
2017-11-07T04:31:30.693Z,7.80
2017-11-07T04:33:56.673Z,7.70
2017-11-07T04:36:23.370Z,7.50
2017-11-07T04:38:49.353Z,7.50
2017-11-07T04:41:15.336Z,7.40
2017-11-07T04:43:41.368Z,7.40
2017-11-07T04:46:07.330Z,7.40
2017-11-07T04:48:33.277Z,7.50
2017-11-07T04:50:59.326Z,7.60
2017-11-07T04:53:25.265Z,7.30
2017-11-07T04:55:51.226Z,7.30
2017-11-07T04:58:17.954Z,7.30
2017-11-07T05:00:43.945Z,7.30
2017-11-07T05:03:09.930Z,7.30
2017-11-07T05:05:35.913Z,7.30
2017-11-07T05:08:01.873Z,7.20
2017-11-07T05:10:27.862Z,7.30
2017-11-07T05:12:54.602Z,7.30
2017-11-07T05:15:21.298Z,7.40
2017-11-07T05:17:47.290Z,7.40
2017-11-07T05:20:14.006Z,7.30
2017-11-07T05:22:39.984Z,7.30
2017-11-07T05:25:06.715Z,7.40
2017-11-07T05:27:32.694Z,7.40
2017-11-07T05:29:58.645Z,7.30
2017-11-07T05:32:24.670Z,7.20
2017-11-07T05:34:50.621Z,7.20
2017-11-07T05:37:16.601Z,7.20
2017-11-07T05:39:42.547Z,7.10
2017-11-07T05:42:09.276Z,7.00
2017-11-07T05:44:35.282Z,7.00
2017-11-07T05:47:01.249Z,7.10
2017-11-07T05:49:27.223Z,7.10
2017-11-07T05:51:53.913Z,7.10
2017-11-07T05:54:19.857Z,7.10
2017-11-07T05:56:45.855Z,7.30
2017-11-07T05:59:11.841Z,7.40
2017-11-07T06:01:37.851Z,7.30
2017-11-07T06:04:03.840Z,7.10
2017-11-07T06:06:29.805Z,6.90
2017-11-07T06:08:55.814Z,6.80
2017-11-07T06:11:22.502Z,6.90
2017-11-07T06:13:48.457Z,6.90
2017-11-07T06:16:14.436Z,7.00
2017-11-07T06:18:41.190Z,6.90
2017-11-07T06:21:07.953Z,6.90
2017-11-07T06:23:34.698Z,6.80
2017-11-07T06:26:01.394Z,6.80
2017-11-07T06:28:27.422Z,6.90
2017-11-07T06:30:53.434Z,6.80
2017-11-07T06:33:20.134Z,6.60
2017-11-07T06:35:46.134Z,6.60
2017-11-07T06:38:12.104Z,6.70
2017-11-07T06:40:38.109Z,6.70
2017-11-07T06:43:04.094Z,6.80
2017-11-07T06:45:30.054Z,6.80
2017-11-07T06:47:56.786Z,6.70
2017-11-07T06:50:22.805Z,6.70
2017-11-07T06:52:48.773Z,6.70
2017-11-07T06:55:15.494Z,6.80
2017-11-07T06:57:41.511Z,6.80
2017-11-07T07:00:07.502Z,6.60
2017-11-07T07:02:34.254Z,6.90
2017-11-07T07:05:00.215Z,6.90
2017-11-07T07:07:26.191Z,6.90
2017-11-07T07:09:52.189Z,6.90
2017-11-07T07:12:18.151Z,7.00
2017-11-07T07:14:44.157Z,7.00
2017-11-07T07:17:10.874Z,6.70
2017-11-07T07:19:36.869Z,6.70
2017-11-07T07:22:02.820Z,6.80
2017-11-07T07:24:28.809Z,6.90
2017-11-07T07:26:54.769Z,6.80
2017-11-07T07:29:20.762Z,6.80
2017-11-07T07:31:46.791Z,6.90
2017-11-07T07:34:12.780Z,6.90
2017-11-07T07:36:38.766Z,6.80
2017-11-07T07:39:04.741Z,6.90
2017-11-07T07:41:30.692Z,6.80
2017-11-07T07:43:56.685Z,6.90
2017-11-07T07:46:22.635Z,7.00
2017-11-07T07:48:49.350Z,6.90
2017-11-07T07:51:15.349Z,6.90
2017-11-07T07:53:41.296Z,6.90
2017-11-07T07:56:07.270Z,6.90
2017-11-07T07:58:33.251Z,7.00
2017-11-07T08:00:59.202Z,7.10
2017-11-07T08:03:25.202Z,7.10
2017-11-07T08:05:51.888Z,7.40
2017-11-07T08:08:17.824Z,7.40
2017-11-07T08:10:43.817Z,7.40
2017-11-07T08:13:10.525Z,7.60
2017-11-07T08:15:36.511Z,7.60
2017-11-07T08:18:03.185Z,7.70
2017-11-07T08:20:29.141Z,7.70
2017-11-07T08:22:55.133Z,7.80
2017-11-07T08:25:21.991Z,8.00
2017-11-07T08:27:48.693Z,8.00
2017-11-07T08:30:14.655Z,8.00
2017-11-07T08:32:40.738Z,8.00
2017-11-07T08:35:06.688Z,8.10
2017-11-07T08:37:32.685Z,8.10
2017-11-07T08:39:59.526Z,8.20
2017-11-07T08:42:25.514Z,8.20
2017-11-07T08:44:51.493Z,8.30
2017-11-07T08:47:17.473Z,8.40
2017-11-07T08:49:43.472Z,8.40
2017-11-07T08:52:09.443Z,8.60
2017-11-07T08:54:36.158Z,8.70
2017-11-07T08:57:02.117Z,8.60
2017-11-07T08:59:28.930Z,8.70
2017-11-07T09:01:54.920Z,8.70
2017-11-07T09:04:21.618Z,8.70
2017-11-07T09:06:47.566Z,8.70
2017-11-07T09:09:13.568Z,8.80
2017-11-07T09:11:39.524Z,8.80
2017-11-07T09:14:05.493Z,8.90
2017-11-07T09:16:31.425Z,8.70
2017-11-07T09:18:57.380Z,8.70
2017-11-07T09:21:24.110Z,8.80
2017-11-07T09:23:50.053Z,8.80
2017-11-07T09:26:15.993Z,8.70
2017-11-07T09:28:42.033Z,8.80
2017-11-07T09:31:08.736Z,8.90
2017-11-07T09:33:34.690Z,8.90
2017-11-07T09:36:00.664Z,8.90
2017-11-07T09:38:27.344Z,9.00
2017-11-07T09:40:53.320Z,8.90
2017-11-07T09:43:19.265Z,9.00
2017-11-07T09:45:45.265Z,9.10
2017-11-07T09:48:11.272Z,9.20
2017-11-07T09:50:37.263Z,9.40
2017-11-07T09:53:03.212Z,9.40
2017-11-07T09:55:29.193Z,9.60
2017-11-07T09:57:55.178Z,9.60
2017-11-07T10:00:21.185Z,9.80
2017-11-07T10:02:47.139Z,9.90
2017-11-07T10:05:13.161Z,9.90
2017-11-07T10:07:39.148Z,10.10
2017-11-07T10:10:05.862Z,10.20
2017-11-07T10:12:31.850Z,10.30
2017-11-07T10:14:57.817Z,10.10
2017-11-07T10:17:23.766Z,10.20
2017-11-07T10:19:49.750Z,10.20
2017-11-07T10:22:16.428Z,10.10
2017-11-07T10:24:42.534Z,10.10
2017-11-07T10:27:09.271Z,10.20
2017-11-07T10:29:35.209Z,10.30
2017-11-07T10:32:01.182Z,10.30
2017-11-07T10:34:27.208Z,10.20
2017-11-07T10:36:53.153Z,10.20
2017-11-07T10:39:19.092Z,10.30
2017-11-07T10:41:45.085Z,10.60
2017-11-07T10:44:11.064Z,10.70
2017-11-07T10:46:37.009Z,10.90
2017-11-07T10:49:03.000Z,10.80
2017-11-07T10:51:29.685Z,10.60
2017-11-07T10:53:55.666Z,10.60
2017-11-07T10:56:21.646Z,10.40
2017-11-07T10:58:47.606Z,10.40
2017-11-07T11:01:13.632Z,10.30
2017-11-07T11:03:39.637Z,10.50
2017-11-07T11:06:06.350Z,10.70
2017-11-07T11:08:32.297Z,10.70
2017-11-07T11:10:58.370Z,10.80
2017-11-07T11:13:25.057Z,10.50
2017-11-07T11:15:50.996Z,10.50
2017-11-07T11:18:16.993Z,10.40
2017-11-07T11:20:43.738Z,10.40
2017-11-07T11:23:10.483Z,10.40
2017-11-07T11:25:36.420Z,10.40
2017-11-07T11:28:03.108Z,10.30
2017-11-07T11:30:29.068Z,10.30
2017-11-07T11:32:55.064Z,10.50
2017-11-07T11:35:21.753Z,10.50
2017-11-07T11:37:47.694Z,10.40
2017-11-07T11:40:13.698Z,10.50
2017-11-07T11:42:39.670Z,10.40
2017-11-07T11:45:05.681Z,10.30
2017-11-07T11:47:31.621Z,10.30
2017-11-07T11:49:57.561Z,10.40
2017-11-07T11:52:23.548Z,10.30
2017-11-07T11:54:50.226Z,10.30
2017-11-07T11:57:16.213Z,10.20
2017-11-07T11:59:42.191Z,10.30
2017-11-07T12:02:08.259Z,10.40
2017-11-07T12:04:34.229Z,10.40
2017-11-07T12:07:00.178Z,10.30
2017-11-07T12:09:26.146Z,10.40
2017-11-07T12:11:52.129Z,10.50
2017-11-07T12:14:18.102Z,10.50
2017-11-07T12:16:44.836Z,10.40
2017-11-07T12:19:12.286Z,10.30
2017-11-07T12:21:38.282Z,10.30
2017-11-07T12:24:04.290Z,10.40
2017-11-07T12:26:31.004Z,10.20
2017-11-07T12:28:56.932Z,10.20
2017-11-07T12:31:22.873Z,10.20
2017-11-07T12:33:48.853Z,10.20
2017-11-07T12:36:15.561Z,10.20
2017-11-07T12:38:41.520Z,10.20
2017-11-07T12:41:07.525Z,10.30
2017-11-07T12:43:33.505Z,10.20
2017-11-07T12:46:00.181Z,10.20
2017-11-07T12:48:26.120Z,10.20
2017-11-07T12:51:04.648Z,10.30
2017-11-07T12:53:30.585Z,10.30
2017-11-07T12:55:56.562Z,10.20
2017-11-07T12:58:22.526Z,10.20
2017-11-07T13:00:49.290Z,10.20
2017-11-07T13:03:15.982Z,10.20
2017-11-07T13:05:41.934Z,10.20
2017-11-07T13:08:07.966Z,10.10
2017-11-07T13:10:33.926Z,10.20
2017-11-07T13:12:59.881Z,10.20
2017-11-07T13:15:26.606Z,10.10
2017-11-07T13:17:52.557Z,10.10
2017-11-07T13:20:18.544Z,10.10
2017-11-07T13:22:44.533Z,10.10
2017-11-07T13:25:10.561Z,10.20
2017-11-07T13:27:36.509Z,10.10
2017-11-07T13:30:02.515Z,10.30
2017-11-07T13:32:28.506Z,10.30
2017-11-07T13:34:54.448Z,10.30
2017-11-07T13:37:20.442Z,10.40
2017-11-07T13:39:46.411Z,10.40
2017-11-07T13:42:12.359Z,10.30
2017-11-07T13:44:38.402Z,10.40
2017-11-07T13:47:04.353Z,10.30
2017-11-07T13:49:30.337Z,10.20
2017-11-07T13:51:57.021Z,10.40
2017-11-07T13:54:22.960Z,10.40
2017-11-07T13:56:48.942Z,10.30
2017-11-07T13:59:14.905Z,10.30
2017-11-07T14:01:41.672Z,10.30
2017-11-07T14:04:07.638Z,10.30
2017-11-07T14:06:33.618Z,10.20
2017-11-07T14:09:00.313Z,10.20
2017-11-07T14:11:26.298Z,10.20
2017-11-07T14:13:52.249Z,10.20
2017-11-07T14:16:18.986Z,10.20
2017-11-07T14:18:44.942Z,10.20
2017-11-07T14:21:11.641Z,10.30
2017-11-07T14:23:37.623Z,10.30
2017-11-07T14:26:04.322Z,10.20
2017-11-07T14:28:30.301Z,10.20
2017-11-07T14:30:56.235Z,10.20
2017-11-07T14:33:22.208Z,10.10
2017-11-07T14:35:48.154Z,10.10
2017-11-07T14:38:14.157Z,10.10
2017-11-07T14:40:40.849Z,10.10
2017-11-07T14:43:06.833Z,10.10
2017-11-07T14:45:32.809Z,10.10
2017-11-07T14:47:58.758Z,10.10
2017-11-07T14:50:24.741Z,10.00
2017-11-07T14:52:50.738Z,10.00
2017-11-07T14:55:16.713Z,10.00
2017-11-07T14:57:43.430Z,10.00
2017-11-07T15:00:09.476Z,10.00
2017-11-07T15:02:35.431Z,10.00
2017-11-07T15:05:01.417Z,10.00
2017-11-07T15:07:27.367Z,10.00
2017-11-07T15:09:53.368Z,9.90
2017-11-07T15:12:20.093Z,9.90
2017-11-07T15:14:46.037Z,9.90
2017-11-07T15:17:12.023Z,9.90
2017-11-07T15:19:38.005Z,9.80
2017-11-07T15:22:03.949Z,9.90
2017-11-07T15:24:30.665Z,9.80
2017-11-07T15:26:56.645Z,9.80
2017-11-07T15:29:23.352Z,10.00
2017-11-07T15:31:49.299Z,10.00
2017-11-07T15:34:15.268Z,10.00
2017-11-07T15:36:42.014Z,9.90
2017-11-07T15:39:08.127Z,9.80
2017-11-07T15:41:34.069Z,9.80
2017-11-07T15:44:00.037Z,9.80
2017-11-07T15:46:26.768Z,9.80
2017-11-07T15:48:52.718Z,9.80
2017-11-07T15:51:19.440Z,9.90
2017-11-07T15:53:45.408Z,9.80
2017-11-07T15:56:12.130Z,9.80
2017-11-07T15:58:39.070Z,9.80
2017-11-07T16:01:05.073Z,9.70
2017-11-07T16:03:31.016Z,9.80
2017-11-07T16:05:56.973Z,9.80
2017-11-07T16:08:22.979Z,9.70
2017-11-07T16:10:49.661Z,9.60
2017-11-07T16:13:15.604Z,9.60
2017-11-07T16:15:41.610Z,9.70
2017-11-07T16:18:07.609Z,9.70
2017-11-07T16:20:33.652Z,9.60
2017-11-07T16:23:00.342Z,9.70
2017-11-07T16:25:26.325Z,9.70
2017-11-07T16:27:52.298Z,9.60
2017-11-07T16:30:19.021Z,9.70
2017-11-07T16:32:44.974Z,9.70
2017-11-07T16:35:11.738Z,9.70
2017-11-07T16:37:38.481Z,9.60
2017-11-07T16:40:05.198Z,9.70
2017-11-07T16:42:31.136Z,9.70
2017-11-07T16:44:57.185Z,9.60
2017-11-07T16:47:23.137Z,9.60
2017-11-07T16:49:49.077Z,9.60
2017-11-07T16:52:15.804Z,9.50
2017-11-07T16:54:41.854Z,9.40
2017-11-07T16:57:07.861Z,9.40
2017-11-07T16:59:33.836Z,9.50
2017-11-07T17:01:59.812Z,9.60
2017-11-07T17:04:25.747Z,9.60
2017-11-07T17:06:51.725Z,9.50
2017-11-07T17:09:17.717Z,9.40
2017-11-07T17:11:43.725Z,9.40
2017-11-07T17:14:09.736Z,9.40
2017-11-07T17:16:35.718Z,9.40
2017-11-07T17:19:01.681Z,9.40
2017-11-07T17:21:27.681Z,9.40
2017-11-07T17:23:54.361Z,9.40
2017-11-07T17:26:20.342Z,9.40
2017-11-07T17:28:46.289Z,9.40
2017-11-07T17:31:13.043Z,9.40
2017-11-07T17:33:39.749Z,9.40
2017-11-07T17:36:05.729Z,9.40
2017-11-07T17:38:32.481Z,9.40
2017-11-07T17:40:58.444Z,9.40
2017-11-07T17:43:24.393Z,9.40
2017-11-07T17:45:50.381Z,9.40
2017-11-07T17:48:16.328Z,9.40
2017-11-07T17:50:43.028Z,9.30
2017-11-07T17:53:09.014Z,9.30
2017-11-07T17:55:35.713Z,9.40
2017-11-07T17:58:01.717Z,9.40
2017-11-07T18:00:28.406Z,9.40
2017-11-07T18:02:54.365Z,9.40
2017-11-07T18:05:20.388Z,9.40
2017-11-07T18:07:46.353Z,9.30
2017-11-07T18:10:12.314Z,9.30
2017-11-07T18:12:39.100Z,9.20
2017-11-07T18:15:05.042Z,9.20
2017-11-07T18:17:31.017Z,9.10
2017-11-07T18:19:56.956Z,9.00
2017-11-07T18:22:22.936Z,9.00
2017-11-07T18:24:48.876Z,8.90
2017-11-07T18:27:14.853Z,8.90
2017-11-07T18:29:40.938Z,8.80
2017-11-07T18:32:06.886Z,8.80
2017-11-07T18:34:32.830Z,8.80
2017-11-07T18:36:58.829Z,8.70
2017-11-07T18:39:24.928Z,8.70
2017-11-07T18:41:50.919Z,8.60
2017-11-07T18:44:16.882Z,8.60
2017-11-07T18:46:43.698Z,8.50
2017-11-07T18:49:09.777Z,8.50
2017-11-07T18:51:35.766Z,8.50
2017-11-07T18:54:02.510Z,8.60
2017-11-07T18:56:29.242Z,8.60
2017-11-07T18:58:55.593Z,8.50
2017-11-07T19:01:21.567Z,8.50
2017-11-07T19:03:47.574Z,8.60
2017-11-07T19:06:13.571Z,8.60
2017-11-07T19:08:39.984Z,8.60
2017-11-07T19:11:06.696Z,8.50
2017-11-07T19:13:32.631Z,8.50
2017-11-07T19:15:58.761Z,8.50
2017-11-07T19:18:24.721Z,8.40
2017-11-07T19:20:50.852Z,8.30
2017-11-07T19:23:16.801Z,8.30
2017-11-07T19:25:42.818Z,8.30
2017-11-07T19:28:08.817Z,8.10
2017-11-07T19:30:35.534Z,8.20
2017-11-07T19:33:01.482Z,8.20
2017-11-07T19:35:27.479Z,8.10
2017-11-07T19:37:53.426Z,8.20
2017-11-07T19:40:19.618Z,8.20
2017-11-07T19:42:45.588Z,8.20
2017-11-07T19:45:11.905Z,8.20
2017-11-07T19:47:38.309Z,8.10
2017-11-07T19:50:04.290Z,8.10
2017-11-07T19:52:30.381Z,8.00
2017-11-07T19:54:56.337Z,8.00
2017-11-07T19:57:22.336Z,8.00
2017-11-07T19:59:48.464Z,7.90
2017-11-07T20:02:14.447Z,7.80
2017-11-07T20:04:40.677Z,7.90
2017-11-07T20:07:06.673Z,7.90
2017-11-07T20:09:32.610Z,7.80
2017-11-07T20:11:58.811Z,7.90
2017-11-07T20:14:24.781Z,7.80
2017-11-07T20:16:50.761Z,7.90
2017-11-07T20:19:16.709Z,7.90
2017-11-07T20:21:42.751Z,7.90
2017-11-07T20:24:08.731Z,7.90
2017-11-07T20:26:34.681Z,7.90
2017-11-07T20:29:00.673Z,7.90
2017-11-07T20:31:27.353Z,7.80
2017-11-07T20:33:53.334Z,7.80
2017-11-07T20:36:19.300Z,7.80
2017-11-07T20:38:46.026Z,7.70
2017-11-07T20:41:12.081Z,7.70
2017-11-07T20:43:38.150Z,7.70
2017-11-07T20:46:04.102Z,7.60
2017-11-07T20:48:30.074Z,7.50
2017-11-07T20:50:56.021Z,7.50
2017-11-07T20:53:22.006Z,7.40
2017-11-07T20:55:47.950Z,7.30
2017-11-07T20:58:13.946Z,7.20
2017-11-07T21:00:40.672Z,7.20
2017-11-07T21:03:06.652Z,7.20
2017-11-07T21:05:32.593Z,7.20
2017-11-07T21:07:58.538Z,7.30
2017-11-07T21:10:24.508Z,7.20
2017-11-07T21:12:50.444Z,7.30
2017-11-07T21:15:16.421Z,7.40
2017-11-07T21:17:42.415Z,7.30
2017-11-07T21:20:09.177Z,7.20
2017-11-07T21:22:35.154Z,7.20
2017-11-07T21:25:01.097Z,7.20
2017-11-07T21:27:27.073Z,7.20
2017-11-07T21:29:53.018Z,7.00
2017-11-07T21:32:19.003Z,7.00
2017-11-07T21:34:45.792Z,7.00
2017-11-07T21:37:12.695Z,7.00
2017-11-07T21:39:39.433Z,6.80
2017-11-07T21:42:06.117Z,6.80
2017-11-07T21:44:32.117Z,6.80
2017-11-07T21:46:58.057Z,6.80
2017-11-07T21:49:24.745Z,6.80
2017-11-07T21:51:50.729Z,6.80
2017-11-07T21:54:16.685Z,6.80
2017-11-07T21:56:43.444Z,6.60
2017-11-07T21:59:10.200Z,6.60
2017-11-07T22:01:36.885Z,6.60
2017-11-07T22:04:02.820Z,6.60
2017-11-07T22:06:28.798Z,6.40
2017-11-07T22:08:54.741Z,6.40
2017-11-07T22:11:20.686Z,6.50
2017-11-07T22:13:47.422Z,6.30
2017-11-07T22:16:13.430Z,6.30
2017-11-07T22:18:39.461Z,6.20
2017-11-07T22:21:05.445Z,6.20
2017-11-07T22:23:38.417Z,6.10
2017-11-07T22:26:04.364Z,6.10
2017-11-07T22:28:30.353Z,6.10
2017-11-07T22:30:56.329Z,6.10
2017-11-07T22:33:23.793Z,5.80
2017-11-07T22:35:49.729Z,5.80
2017-11-07T22:38:15.675Z,5.80
2017-11-07T22:40:41.681Z,5.80
2017-11-07T22:43:07.626Z,5.70
2017-11-07T22:45:33.605Z,5.70
2017-11-07T22:48:00.307Z,5.80
2017-11-07T22:50:26.293Z,5.70
2017-11-07T22:52:52.985Z,5.70
2017-11-07T22:55:18.924Z,5.60
2017-11-07T22:57:45.645Z,5.60
2017-11-07T23:00:12.372Z,5.60
2017-11-07T23:02:38.360Z,5.60
2017-11-07T23:05:06.195Z,5.50
2017-11-07T23:07:32.925Z,5.30
2017-11-07T23:09:58.874Z,5.30
2017-11-07T23:12:26.314Z,5.20
2017-11-07T23:14:52.288Z,5.20
2017-11-07T23:17:18.237Z,5.20
2017-11-07T23:19:44.968Z,5.20
2017-11-07T23:22:10.992Z,5.20
2017-11-07T23:24:36.960Z,5.30
2017-11-07T23:27:03.658Z,5.30
2017-11-07T23:29:29.658Z,5.30
2017-11-07T23:31:56.381Z,5.30
2017-11-07T23:34:22.321Z,5.20
2017-11-07T23:36:48.308Z,5.20
2017-11-07T23:39:14.276Z,5.20
2017-11-07T23:41:40.256Z,5.10
2017-11-07T23:44:06.238Z,5.00
2017-11-07T23:46:32.224Z,5.00
2017-11-07T23:48:58.923Z,4.90
2017-11-07T23:51:24.911Z,4.80
2017-11-07T23:53:51.601Z,4.90
2017-11-07T23:56:17.536Z,4.90
2017-11-07T23:58:43.554Z,4.90
